Time;durP1;ratioP1;P1;durP2;ratioP2;P2;SDS_P1;SDS_P2;PMS_P1;PMS_P2;Temp;Humidity;BMP_temperature;BMP_pressure;BME280_temperature;BME280_humidity;BME280_pressure;Samples;Min_cycle;Max_cycle;Signal;HPM_P1;HPM_P2
2023/07/23 00:00:32;;;;;;;25.33;13.52;;;15.20;99.90;;;;;;4925382;29;20099;-65
2023/07/23 00:02:57;;;;;;;21.38;11.95;;;15.20;99.90;;;;;;4923272;29;20044;-65
2023/07/23 00:05:24;;;;;;;19.42;9.55;;;15.20;99.90;;;;;;4924265;29;20030;-65
2023/07/23 00:07:54;;;;;;;20.98;10.18;;;15.20;99.90;;;;;;4924928;29;20034;-66
2023/07/23 00:10:21;;;;;;;22.00;11.20;;;15.20;99.90;;;;;;4923571;29;20026;-66
2023/07/23 00:12:47;;;;;;;22.38;10.30;;;15.30;99.90;;;;;;4924911;29;20023;-66
2023/07/23 00:15:12;;;;;;;25.77;15.25;;;15.20;99.90;;;;;;4925055;29;20031;-67
2023/07/23 00:17:39;;;;;;;22.30;11.05;;;15.20;99.90;;;;;;4923513;29;20120;-66
2023/07/23 00:20:07;;;;;;;22.80;10.25;;;15.20;99.90;;;;;;4925087;29;20123;-65
2023/07/23 00:22:33;;;;;;;18.13;9.52;;;15.20;99.90;;;;;;4925233;29;20469;-65
2023/07/23 00:24:59;;;;;;;19.05;10.18;;;15.20;99.90;;;;;;4923095;29;20052;-65
2023/07/23 00:27:24;;;;;;;22.08;10.73;;;15.20;99.90;;;;;;4925033;29;20036;-67
2023/07/23 00:29:50;;;;;;;21.52;11.43;;;15.20;99.90;;;;;;4924438;29;20024;-67
2023/07/23 00:32:17;;;;;;;19.88;10.48;;;15.20;99.90;;;;;;4923660;29;20032;-66
2023/07/23 00:34:42;;;;;;;21.77;10.55;;;15.20;99.90;;;;;;4925251;29;20052;-66
2023/07/23 00:37:09;;;;;;;19.33;9.85;;;15.20;99.90;;;;;;4924481;29;20560;-66
2023/07/23 00:39:34;;;;;;;20.20;10.40;;;15.20;99.90;;;;;;4923398;29;20024;-66
2023/07/23 00:42:00;;;;;;;20.10;10.77;;;15.20;99.90;;;;;;4924858;29;20051;-66
2023/07/23 00:44:26;;;;;;;20.70;10.32;;;15.20;99.90;;;;;;4923792;29;20465;-66
2023/07/23 00:46:54;;;;;;;22.35;10.38;;;15.20;99.90;;;;;;4923480;29;20032;-67
2023/07/23 00:49:20;;;;;;;22.58;11.30;;;15.20;99.90;;;;;;4925198;29;20067;-66
2023/07/23 00:51:46;;;;;;;21.80;9.73;;;15.20;99.90;;;;;;4923734;29;20709;-66
2023/07/23 00:54:13;;;;;;;21.33;10.40;;;15.20;99.90;;;;;;4927495;29;20028;-67
2023/07/23 00:56:42;;;;;;;22.20;10.68;;;15.20;99.90;;;;;;4929040;29;20028;-66
2023/07/23 00:59:09;;;;;;;21.05;10.80;;;15.20;99.90;;;;;;4928250;29;20032;-65
2023/07/23 01:01:34;;;;;;;21.10;10.60;;;15.20;99.90;;;;;;4922165;29;20111;-65
2023/07/23 01:04:00;;;;;;;19.00;9.85;;;15.30;99.90;;;;;;4917235;29;20129;-65
2023/07/23 01:06:31;;;;;;;19.23;9.88;;;15.30;99.90;;;;;;4917404;29;20472;-65
2023/07/23 01:08:58;;;;;;;18.00;10.43;;;15.30;99.90;;;;;;4919153;29;20044;-65
2023/07/23 01:11:24;;;;;;;21.60;10.90;;;15.30;99.90;;;;;;4918691;29;20032;-65
2023/07/23 01:13:51;;;;;;;19.98;11.48;;;15.30;99.90;;;;;;4919486;29;20494;-65
2023/07/23 01:16:18;;;;;;;22.17;11.93;;;15.30;99.90;;;;;;4919092;29;20716;-65
2023/07/23 01:18:44;;;;;;;25.13;12.45;;;15.30;99.90;;;;;;4917014;29;20032;-65
2023/07/23 01:21:17;;;;;;;21.65;12.25;;;15.30;99.90;;;;;;4917277;29;20503;-65
2023/07/23 01:23:43;;;;;;;20.85;11.25;;;15.30;99.90;;;;;;4917974;29;20131;-66
2023/07/23 01:26:08;;;;;;;21.92;12.10;;;15.30;99.90;;;;;;4918380;29;20465;-66
2023/07/23 01:28:34;;;;;;;20.88;10.82;;;15.30;99.90;;;;;;4917744;29;20087;-66
2023/07/23 01:30:59;;;;;;;22.60;11.32;;;15.30;99.90;;;;;;4918822;29;20079;-66
2023/07/23 01:33:26;;;;;;;21.58;11.15;;;15.30;99.90;;;;;;4918634;29;20035;-68
2023/07/23 01:35:55;;;;;;;18.58;10.15;;;15.30;99.90;;;;;;4918594;29;20115;-67
2023/07/23 01:38:22;;;;;;;21.63;9.57;;;15.30;99.90;;;;;;4918888;29;20059;-67
2023/07/23 01:40:48;;;;;;;19.38;10.57;;;15.30;99.90;;;;;;4917533;29;20040;-67
2023/07/23 01:43:15;;;;;;;21.40;10.13;;;15.30;99.90;;;;;;4918448;29;20516;-67
2023/07/23 01:45:44;;;;;;;21.98;11.00;;;15.20;99.90;;;;;;4918630;29;20032;-67
2023/07/23 01:48:12;;;;;;;19.35;10.40;;;15.30;99.90;;;;;;4918692;29;20051;-67
2023/07/23 01:50:38;;;;;;;22.73;11.50;;;15.20;99.90;;;;;;4918609;29;20490;-67
2023/07/23 01:53:04;;;;;;;18.90;9.57;;;15.20;99.90;;;;;;4918776;29;20036;-67
2023/07/23 01:55:30;;;;;;;20.90;10.95;;;15.30;99.90;;;;;;4918666;29;20393;-67
2023/07/23 01:57:55;;;;;;;23.15;11.77;;;15.20;99.90;;;;;;4917404;29;20024;-67
2023/07/23 02:00:21;;;;;;;21.55;11.95;;;15.30;99.90;;;;;;4918621;29;20039;-67
2023/07/23 02:02:46;;;;;;;24.92;12.52;;;15.30;99.90;;;;;;4918134;29;20043;-67
2023/07/23 02:05:13;;;;;;;22.00;11.77;;;15.20;99.90;;;;;;4924987;29;20038;-67
2023/07/23 02:07:39;;;;;;;21.73;12.75;;;15.20;99.90;;;;;;4927629;29;20040;-67
2023/07/23 02:10:05;;;;;;;22.60;11.45;;;15.20;99.90;;;;;;4926988;29;20040;-66
2023/07/23 02:12:33;;;;;;;22.08;12.10;;;15.20;99.90;;;;;;4918024;29;20028;-66
2023/07/23 02:14:59;;;;;;;21.30;12.55;;;15.20;99.90;;;;;;4917909;29;20484;-67
2023/07/23 02:17:25;;;;;;;24.83;13.02;;;15.20;99.90;;;;;;4917563;29;20031;-67
2023/07/23 02:19:51;;;;;;;23.83;13.20;;;15.20;99.90;;;;;;4918105;29;20327;-66
2023/07/23 02:22:16;;;;;;;22.17;13.10;;;15.20;99.90;;;;;;4918083;29;20051;-67
2023/07/23 02:24:42;;;;;;;22.67;12.77;;;15.30;99.90;;;;;;4917916;29;20124;-66
2023/07/23 02:27:07;;;;;;;21.48;12.77;;;15.30;99.90;;;;;;4918192;29;20552;-67
2023/07/23 02:29:33;;;;;;;24.02;13.00;;;15.30;99.90;;;;;;4917883;29;20444;-67
2023/07/23 02:31:58;;;;;;;26.00;13.95;;;15.30;99.90;;;;;;4917458;29;20469;-67
2023/07/23 02:34:24;;;;;;;24.63;13.98;;;15.30;99.90;;;;;;4917965;29;20075;-67
2023/07/23 02:36:50;;;;;;;22.52;13.25;;;15.30;99.90;;;;;;4917973;29;20091;-67
2023/07/23 02:39:16;;;;;;;25.92;13.73;;;15.30;99.90;;;;;;4918055;29;20469;-67
2023/07/23 02:41:41;;;;;;;23.92;14.55;;;15.30;99.90;;;;;;4917580;29;20059;-67
2023/07/23 02:44:07;;;;;;;25.67;14.05;;;15.30;99.90;;;;;;4917883;29;20059;-67
2023/07/23 02:46:32;;;;;;;28.08;14.48;;;15.30;99.90;;;;;;4917482;29;20035;-67
2023/07/23 02:48:58;;;;;;;25.50;13.57;;;15.30;99.90;;;;;;4917821;29;20079;-67
2023/07/23 02:51:23;;;;;;;28.33;14.43;;;15.30;99.90;;;;;;4917398;29;20433;-67
2023/07/23 02:53:49;;;;;;;28.27;15.30;;;15.30;99.90;;;;;;4917789;29;20394;-67
2023/07/23 02:56:15;;;;;;;24.83;14.50;;;15.30;99.90;;;;;;4917691;29;20074;-67
2023/07/23 02:58:41;;;;;;;27.35;14.48;;;15.30;99.90;;;;;;4917544;29;20040;-67
2023/07/23 03:01:09;;;;;;;25.13;14.48;;;15.30;99.90;;;;;;4917335;29;20032;-67
2023/07/23 03:03:35;;;;;;;26.63;14.57;;;15.30;99.90;;;;;;4917330;29;20481;-67
2023/07/23 03:06:01;;;;;;;29.70;15.85;;;15.30;99.90;;;;;;4917276;29;20401;-67
2023/07/23 03:08:27;;;;;;;24.40;13.68;;;15.30;99.90;;;;;;4917432;29;20028;-67
2023/07/23 03:10:52;;;;;;;27.42;15.18;;;15.30;99.90;;;;;;4917431;29;20028;-66
2023/07/23 03:13:18;;;;;;;30.05;15.60;;;15.30;99.90;;;;;;4917610;29;20120;-67
2023/07/23 03:15:43;;;;;;;27.27;15.05;;;15.40;99.90;;;;;;4917000;29;20119;-66
2023/07/23 03:18:09;;;;;;;26.38;15.00;;;15.40;99.90;;;;;;4917314;29;20066;-67
2023/07/23 03:20:34;;;;;;;28.38;15.15;;;15.40;99.90;;;;;;4917307;29;20032;-67
2023/07/23 03:23:00;;;;;;;26.08;14.88;;;15.40;99.90;;;;;;4916777;29;20067;-67
2023/07/23 03:25:25;;;;;;;29.58;16.42;;;15.40;99.90;;;;;;4932165;29;20039;-67
2023/07/23 03:27:51;;;;;;;25.27;13.23;;;15.40;99.90;;;;;;4936164;29;20020;-67
2023/07/23 03:30:17;;;;;;;27.95;15.15;;;15.40;99.90;;;;;;4935706;29;20031;-67
2023/07/23 03:32:42;;;;;;;25.63;13.73;;;15.40;99.90;;;;;;4935875;29;20023;-67
2023/07/23 03:35:08;;;;;;;25.17;14.18;;;15.40;99.90;;;;;;4935912;29;20027;-67
2023/07/23 03:37:33;;;;;;;28.00;15.50;;;15.40;99.90;;;;;;4935759;29;20074;-68
2023/07/23 03:39:59;;;;;;;25.08;13.98;;;15.40;99.90;;;;;;4935615;29;20102;-67
2023/07/23 03:42:25;;;;;;;23.70;13.45;;;15.40;99.90;;;;;;4930040;29;20047;-68
2023/07/23 03:44:50;;;;;;;23.70;14.60;;;15.40;99.90;;;;;;4935307;29;20032;-68
2023/07/23 03:47:18;;;;;;;25.20;13.60;;;15.40;99.90;;;;;;4934558;29;20098;-67
2023/07/23 03:49:44;;;;;;;26.08;13.88;;;15.40;99.90;;;;;;4935444;29;20685;-68
2023/07/23 03:52:10;;;;;;;25.60;14.18;;;15.40;99.90;;;;;;4935430;29;20373;-67
2023/07/23 03:54:37;;;;;;;24.80;13.07;;;15.40;99.90;;;;;;4935657;29;20043;-67
2023/07/23 03:57:03;;;;;;;26.73;14.15;;;15.40;99.90;;;;;;4935697;29;20032;-67
2023/07/23 03:59:40;;;;;;;25.10;13.48;;;15.40;99.90;;;;;;4935147;29;20136;-68
2023/07/23 04:02:06;;;;;;;23.67;13.80;;;15.40;99.90;;;;;;4935700;29;20043;-68
2023/07/23 04:04:32;;;;;;;22.38;12.05;;;15.50;99.90;;;;;;4935755;29;20099;-68
2023/07/23 04:06:58;;;;;;;23.95;11.80;;;15.40;99.90;;;;;;4935561;29;20089;-68
2023/07/23 04:09:23;;;;;;;25.05;13.13;;;15.40;99.90;;;;;;4935547;29;20502;-68
2023/07/23 04:11:49;;;;;;;22.63;12.68;;;15.40;99.90;;;;;;4935506;29;20040;-68
2023/07/23 04:14:15;;;;;;;26.33;12.65;;;15.40;99.90;;;;;;4935425;29;20408;-68
2023/07/23 04:16:40;;;;;;;25.88;13.02;;;15.50;99.90;;;;;;4935622;29;20034;-68
2023/07/23 04:19:06;;;;;;;24.67;13.00;;;15.40;99.90;;;;;;4935318;29;20512;-68
2023/07/23 04:21:31;;;;;;;25.05;14.68;;;15.40;99.90;;;;;;4935391;29;20111;-68
2023/07/23 04:23:58;;;;;;;23.92;12.80;;;15.40;99.90;;;;;;4935121;29;20031;-68
2023/07/23 04:26:26;;;;;;;25.65;13.05;;;15.40;99.90;;;;;;4935090;29;20079;-67
2023/07/23 04:28:52;;;;;;;24.15;13.45;;;15.40;99.90;;;;;;4934618;29;20031;-68
2023/07/23 04:31:18;;;;;;;27.65;13.48;;;15.40;99.90;;;;;;4935145;29;20038;-67
2023/07/23 04:33:44;;;;;;;24.90;13.32;;;15.50;99.90;;;;;;4934877;29;20058;-67
2023/07/23 04:36:12;;;;;;;25.52;13.48;;;15.50;99.90;;;;;;4935236;29;20055;-67
2023/07/23 04:38:38;;;;;;;28.05;15.07;;;15.50;99.90;;;;;;4935151;29;20024;-67
2023/07/23 04:41:04;;;;;;;27.33;13.88;;;15.50;99.90;;;;;;4934754;29;20027;-68
2023/07/23 04:43:30;;;;;;;28.23;13.48;;;15.50;99.90;;;;;;4934975;29;20063;-68
2023/07/23 04:45:55;;;;;;;23.80;13.43;;;15.50;99.90;;;;;;4935210;29;20031;-67
2023/07/23 04:48:21;;;;;;;26.27;14.20;;;15.50;99.90;;;;;;4933501;29;20027;-68
2023/07/23 04:50:55;;;;;;;24.40;14.20;;;15.50;99.90;;;;;;4935328;29;20039;-68
2023/07/23 04:53:20;;;;;;;26.80;14.60;;;15.50;99.90;;;;;;4934531;29;20133;-67
2023/07/23 04:55:49;;;;;;;30.38;15.32;;;15.50;99.90;;;;;;4934500;29;20469;-67
2023/07/23 04:58:15;;;;;;;27.42;14.85;;;15.60;99.90;;;;;;4933535;29;20038;-68
2023/07/23 05:00:40;;;;;;;27.77;15.70;;;15.60;99.90;;;;;;4934533;29;20028;-67
2023/07/23 05:03:06;;;;;;;24.58;13.38;;;15.60;99.90;;;;;;4934552;29;20040;-68
2023/07/23 05:05:31;;;;;;;24.75;12.82;;;15.70;99.90;;;;;;4934598;29;20051;-67
2023/07/23 05:07:57;;;;;;;24.85;11.98;;;15.70;99.90;;;;;;4934679;29;20417;-67
2023/07/23 05:10:22;;;;;;;23.98;13.20;;;15.70;99.90;;;;;;4933020;29;20130;-67
2023/07/23 05:12:48;;;;;;;26.00;13.55;;;15.70;99.90;;;;;;4934721;29;20036;-67
2023/07/23 05:15:14;;;;;;;25.83;12.65;;;15.70;99.90;;;;;;4934654;29;20105;-67
2023/07/23 05:17:41;;;;;;;24.05;12.35;;;15.70;99.90;;;;;;4934626;29;20664;-67
2023/07/23 05:20:08;;;;;;;23.85;13.05;;;15.70;99.90;;;;;;4934775;29;20115;-67
2023/07/23 05:22:37;;;;;;;28.65;15.85;;;15.70;99.90;;;;;;4934742;29;20035;-67
2023/07/23 05:25:03;;;;;;;26.88;13.18;;;15.60;99.90;;;;;;4934679;29;20046;-67
2023/07/23 05:27:29;;;;;;;25.85;12.85;;;15.70;99.90;;;;;;4934558;29;20060;-67
2023/07/23 05:29:55;;;;;;;28.52;15.68;;;15.70;99.90;;;;;;4934396;29;20384;-67
2023/07/23 05:32:21;;;;;;;33.05;15.23;;;15.80;99.90;;;;;;4934486;29;20036;-67
2023/07/23 05:34:46;;;;;;;28.33;13.40;;;15.80;99.90;;;;;;4934698;29;20035;-67
2023/07/23 05:37:12;;;;;;;32.67;15.52;;;15.80;99.90;;;;;;4934339;29;20024;-68
2023/07/23 05:39:37;;;;;;;28.50;14.77;;;15.80;99.90;;;;;;4935378;29;20035;-67
2023/07/23 05:42:03;;;;;;;29.58;14.43;;;15.80;99.90;;;;;;4937758;29;20102;-67
2023/07/23 05:44:29;;;;;;;29.15;13.93;;;15.90;99.90;;;;;;4938014;29;20411;-67
2023/07/23 05:46:56;;;;;;;29.10;14.23;;;15.90;99.90;;;;;;4937993;29;20024;-67
2023/07/23 05:49:21;;;;;;;26.15;11.85;;;16.00;99.90;;;;;;4937693;29;20361;-67
2023/07/23 05:51:48;;;;;;;25.65;11.82;;;16.00;99.90;;;;;;4938092;29;20051;-67
2023/07/23 05:54:13;;;;;;;27.15;12.38;;;16.00;99.90;;;;;;4937689;29;20024;-67
2023/07/23 05:56:39;;;;;;;28.75;15.18;;;16.00;99.90;;;;;;4937670;29;20054;-67
2023/07/23 05:59:04;;;;;;;25.42;12.10;;;16.00;99.90;;;;;;4937549;29;20267;-67
2023/07/23 06:01:30;;;;;;;26.38;11.57;;;16.10;99.90;;;;;;4937704;29;20409;-66
2023/07/23 06:03:56;;;;;;;26.20;11.20;;;16.00;99.90;;;;;;4937785;29;20039;-67
2023/07/23 06:06:22;;;;;;;19.55;9.40;;;16.00;99.90;;;;;;4936190;29;20028;-68
2023/07/23 06:08:48;;;;;;;26.02;13.77;;;16.00;99.90;;;;;;4937448;29;20032;-68
2023/07/23 06:11:14;;;;;;;22.50;10.82;;;16.00;99.90;;;;;;4937641;29;20038;-68
2023/07/23 06:13:39;;;;;;;24.60;11.93;;;16.10;99.90;;;;;;4937641;29;20032;-68
2023/07/23 06:16:05;;;;;;;28.70;15.93;;;16.20;99.90;;;;;;4937516;29;20087;-67
2023/07/23 06:18:30;;;;;;;16.67;7.47;;;16.20;99.90;;;;;;4937434;29;20031;-67
2023/07/23 06:20:56;;;;;;;24.35;10.90;;;16.20;99.90;;;;;;4937498;29;20532;-68
2023/07/23 06:23:21;;;;;;;24.95;11.82;;;16.20;99.90;;;;;;4936851;29;20040;-68
2023/07/23 06:25:54;;;;;;;21.55;9.70;;;16.10;99.90;;;;;;4937028;29;20058;-67
2023/07/23 06:28:20;;;;;;;21.98;9.65;;;16.10;99.90;;;;;;4937202;29;20042;-68
2023/07/23 06:30:45;;;;;;;22.40;9.98;;;16.10;99.90;;;;;;4937294;29;20690;-67
2023/07/23 06:33:11;;;;;;;27.23;14.00;;;16.00;99.90;;;;;;4935809;29;20499;-67
2023/07/23 06:35:37;;;;;;;20.85;8.82;;;16.00;99.90;;;;;;4937001;29;20039;-67
2023/07/23 06:38:04;;;;;;;20.63;11.27;;;15.90;99.90;;;;;;4936972;29;20035;-67
2023/07/23 06:40:29;;;;;;;20.70;9.55;;;15.90;99.90;;;;;;4937148;29;20028;-67
2023/07/23 06:42:55;;;;;;;20.60;9.95;;;16.00;99.90;;;;;;4937120;29;20237;-67
2023/07/23 06:45:20;;;;;;;24.13;12.85;;;16.00;99.90;;;;;;4936954;29;20038;-67
2023/07/23 06:47:46;;;;;;;21.88;10.15;;;16.10;99.90;;;;;;4936678;29;20039;-68
2023/07/23 06:50:12;;;;;;;22.73;9.23;;;16.20;99.90;;;;;;4936593;29;20365;-67
2023/07/23 06:52:37;;;;;;;21.40;10.50;;;16.30;99.90;;;;;;4936218;29;20038;-67
2023/07/23 06:55:03;;;;;;;20.98;9.73;;;16.30;99.90;;;;;;4936901;29;20039;-68
2023/07/23 06:57:28;;;;;;;18.88;9.35;;;16.40;99.90;;;;;;4936464;29;20039;-68
2023/07/23 06:59:54;;;;;;;17.75;9.88;;;16.50;99.90;;;;;;4936517;29;20028;-68
2023/07/23 07:02:19;;;;;;;15.82;7.97;;;16.50;99.90;;;;;;4936230;29;20039;-67
2023/07/23 07:04:45;;;;;;;16.25;7.55;;;16.60;99.90;;;;;;4935903;29;20028;-67
2023/07/23 07:07:11;;;;;;;22.48;9.38;;;16.60;99.90;;;;;;4936123;29;20516;-67
2023/07/23 07:09:36;;;;;;;18.23;9.30;;;16.70;99.90;;;;;;4936613;29;20472;-67
2023/07/23 07:12:02;;;;;;;17.05;8.10;;;16.70;99.90;;;;;;4936497;29;20054;-67
2023/07/23 07:14:27;;;;;;;19.55;8.13;;;16.70;99.90;;;;;;4936952;29;20043;-68
2023/07/23 07:16:53;;;;;;;14.23;7.32;;;16.80;99.90;;;;;;4936527;29;20052;-67
2023/07/23 07:19:18;;;;;;;16.73;8.60;;;16.80;99.90;;;;;;4936040;29;20055;-67
2023/07/23 07:21:44;;;;;;;18.42;8.30;;;16.90;99.90;;;;;;4935639;29;20068;-67
2023/07/23 07:24:09;;;;;;;17.40;6.70;;;17.00;99.90;;;;;;4936186;29;20432;-67
2023/07/23 07:26:35;;;;;;;16.17;7.25;;;17.20;99.90;;;;;;4936363;29;20035;-67
2023/07/23 07:29:01;;;;;;;14.10;7.07;;;17.30;99.90;;;;;;4936380;29;20028;-68
2023/07/23 07:31:26;;;;;;;17.55;8.35;;;17.50;99.90;;;;;;4935867;29;20036;-68
2023/07/23 07:33:52;;;;;;;14.68;6.95;;;17.70;99.90;;;;;;4935862;29;20043;-68
2023/07/23 07:36:17;;;;;;;11.75;5.55;;;17.90;99.90;;;;;;4935988;29;20038;-68
2023/07/23 07:38:43;;;;;;;12.48;6.18;;;18.00;99.90;;;;;;4936210;29;20035;-68
2023/07/23 07:41:09;;;;;;;14.52;6.50;;;17.90;99.90;;;;;;4936004;29;20028;-67
2023/07/23 07:43:35;;;;;;;14.30;6.70;;;17.70;99.90;;;;;;4935804;29;20224;-68
2023/07/23 07:46:03;;;;;;;13.98;6.90;;;17.60;99.90;;;;;;4935638;29;20024;-68
2023/07/23 07:48:31;;;;;;;15.15;6.80;;;17.50;99.90;;;;;;4935557;29;20111;-66
2023/07/23 07:50:59;;;;;;;13.98;6.65;;;17.50;99.90;;;;;;4932449;29;20024;-66
2023/07/23 07:53:25;;;;;;;14.68;6.00;;;17.50;99.90;;;;;;4935569;29;20111;-68
2023/07/23 07:55:51;;;;;;;13.18;6.57;;;17.50;99.90;;;;;;4940623;29;20110;-67
2023/07/23 07:58:17;;;;;;;11.35;5.20;;;17.50;99.90;;;;;;4954050;29;20039;-67
2023/07/23 08:00:43;;;;;;;16.00;7.45;;;17.50;99.90;;;;;;4954477;28;20476;-67
2023/07/23 08:03:09;;;;;;;13.50;6.72;;;17.40;99.90;;;;;;4954105;28;20123;-67
2023/07/23 08:05:36;;;;;;;14.27;6.65;;;17.40;99.90;;;;;;4954664;28;20752;-67
2023/07/23 08:08:04;;;;;;;15.23;7.05;;;17.40;99.90;;;;;;4954670;28;20028;-67
2023/07/23 08:10:32;;;;;;;12.05;5.47;;;17.40;99.90;;;;;;4954571;28;20053;-67
2023/07/23 08:12:57;;;;;;;14.95;6.97;;;17.40;99.90;;;;;;4953890;28;20045;-67
2023/07/23 08:15:23;;;;;;;15.30;7.60;;;17.40;99.90;;;;;;4954123;29;20035;-68
2023/07/23 08:17:49;;;;;;;16.70;7.55;;;17.40;99.90;;;;;;4953856;29;20387;-67
2023/07/23 08:20:15;;;;;;;12.73;6.07;;;17.50;99.90;;;;;;4953760;29;20066;-67
2023/07/23 08:22:41;;;;;;;15.18;6.38;;;17.50;99.90;;;;;;4953725;28;20502;-66
2023/07/23 08:25:08;;;;;;;10.30;4.60;;;17.60;99.90;;;;;;4954219;29;20073;-66
2023/07/23 08:27:35;;;;;;;13.98;5.57;;;17.70;99.90;;;;;;4948848;28;20027;-67
2023/07/23 08:30:01;;;;;;;19.45;7.47;;;17.70;99.90;;;;;;4935254;29;20020;-67
2023/07/23 08:32:29;;;;;;;13.50;5.93;;;17.70;99.90;;;;;;4937827;28;20149;-68
2023/07/23 08:34:55;;;;;;;13.43;6.30;;;17.70;99.90;;;;;;4954536;28;20027;-68
2023/07/23 08:37:21;;;;;;;13.00;6.38;;;17.70;99.90;;;;;;4953940;28;20476;-67
2023/07/23 08:39:47;;;;;;;12.90;6.40;;;17.80;99.90;;;;;;4954117;29;20111;-67
2023/07/23 08:42:26;;;;;;;13.95;5.35;;;17.80;99.90;;;;;;4953845;28;20518;-66
2023/07/23 08:45:03;;;;;;;16.90;6.05;;;17.80;99.90;;;;;;4953601;29;20085;-67
2023/07/23 08:47:34;;;;;;;14.55;5.47;;;17.90;99.90;;;;;;4953595;29;20028;-66
2023/07/23 08:50:00;;;;;;;18.20;8.57;;;18.00;99.90;;;;;;4953962;28;20031;-66
2023/07/23 08:52:27;;;;;;;15.60;5.82;;;18.10;99.90;;;;;;4954050;28;20027;-66
2023/07/23 08:54:54;;;;;;;9.88;5.10;;;18.10;99.90;;;;;;4943236;28;20039;-66
2023/07/23 08:57:20;;;;;;;19.73;10.10;;;18.10;99.90;;;;;;4934293;29;20043;-67
2023/07/23 08:59:46;;;;;;;8.27;4.10;;;18.10;99.90;;;;;;4941888;29;20016;-66
2023/07/23 09:02:15;;;;;;;16.38;7.95;;;18.20;99.90;;;;;;4953886;28;20051;-66
2023/07/23 09:04:40;;;;;;;14.50;5.90;;;18.10;99.90;;;;;;4953603;28;20023;-67
2023/07/23 09:07:10;;;;;;;11.55;4.78;;;18.20;99.90;;;;;;4933994;29;20433;-67
2023/07/23 09:09:35;;;;;;;12.45;5.45;;;18.30;99.90;;;;;;4934988;29;20039;-67
2023/07/23 09:12:03;;;;;;;10.93;5.15;;;18.30;99.90;;;;;;4934624;29;20036;-67
2023/07/23 09:14:29;;;;;;;10.30;4.82;;;18.40;99.90;;;;;;4937763;29;20118;-67
2023/07/23 09:16:55;;;;;;;10.98;5.47;;;18.50;99.90;;;;;;4938639;29;20115;-67
2023/07/23 09:19:23;;;;;;;10.05;5.80;;;18.50;99.90;;;;;;4938580;29;20452;-67
2023/07/23 09:21:48;;;;;;;10.60;4.95;;;18.50;99.90;;;;;;4938436;29;20365;-67
2023/07/23 09:24:15;;;;;;;14.25;6.20;;;18.60;99.90;;;;;;4938173;29;20483;-67
2023/07/23 09:26:42;;;;;;;9.30;5.45;;;18.70;99.90;;;;;;4938211;29;20091;-67
2023/07/23 09:29:11;;;;;;;10.18;5.63;;;18.80;99.90;;;;;;4938075;29;20031;-67
2023/07/23 09:31:41;;;;;;;12.93;6.25;;;18.80;99.90;;;;;;4938159;29;20067;-66
2023/07/23 09:34:07;;;;;;;10.68;5.45;;;18.70;99.90;;;;;;4938300;29;20031;-66
2023/07/23 09:36:33;;;;;;;14.48;7.47;;;18.60;99.90;;;;;;4938352;29;20027;-66
2023/07/23 09:39:05;;;;;;;14.68;7.07;;;18.60;99.90;;;;;;4938127;29;20588;-66
2023/07/23 09:41:33;;;;;;;12.02;5.80;;;18.50;99.90;;;;;;4938168;29;20035;-66
2023/07/23 09:44:17;;;;;;;9.68;4.95;;;18.50;99.90;;;;;;4938159;29;20142;-68
2023/07/23 09:46:46;;;;;;;10.48;5.35;;;18.50;99.90;;;;;;4937817;29;20040;-68
2023/07/23 09:49:13;;;;;;;9.98;5.93;;;18.50;99.90;;;;;;4938051;29;20032;-68
2023/07/23 09:51:39;;;;;;;17.75;9.00;;;18.50;99.90;;;;;;4937055;29;20027;-68
2023/07/23 09:54:05;;;;;;;14.38;6.68;;;18.60;99.90;;;;;;4937719;29;20032;-68
2023/07/23 09:56:33;;;;;;;11.30;6.63;;;18.60;99.90;;;;;;4937712;29;20354;-66
2023/07/23 09:58:59;;;;;;;10.68;5.32;;;18.70;99.90;;;;;;4937795;29;20507;-68
2023/07/23 10:01:26;;;;;;;12.75;6.85;;;18.70;99.90;;;;;;4938015;29;20067;-67
2023/07/23 10:03:53;;;;;;;12.82;7.40;;;18.70;99.90;;;;;;4937823;29;20040;-67
2023/07/23 10:06:24;;;;;;;10.40;5.72;;;18.70;99.90;;;;;;4937946;29;20031;-68
2023/07/23 10:08:49;;;;;;;9.50;5.45;;;18.80;99.90;;;;;;4937906;29;20082;-68
2023/07/23 10:11:17;;;;;;;7.93;4.40;;;18.90;99.90;;;;;;4937805;29;20380;-68
2023/07/23 10:13:43;;;;;;;11.73;5.57;;;19.10;99.90;;;;;;4937428;29;20082;-67
2023/07/23 10:16:29;;;;;;;15.20;8.07;;;19.30;99.90;;;;;;4937423;29;20066;-67
2023/07/23 10:18:56;;;;;;;8.25;4.47;;;19.50;99.90;;;;;;4940884;28;20032;-68
2023/07/23 10:21:22;;;;;;;10.93;5.53;;;19.60;99.90;;;;;;4956550;28;20067;-67
2023/07/23 10:23:58;;;;;;;8.80;5.03;;;19.70;99.90;;;;;;4956017;29;20082;-67
2023/07/23 10:26:26;;;;;;;10.55;5.53;;;19.90;99.90;;;;;;4955730;28;20020;-68
2023/07/23 10:29:06;;;;;;;11.55;5.10;;;20.10;99.90;;;;;;4956259;28;20028;-67
2023/07/23 10:31:33;;;;;;;9.73;4.30;;;20.10;99.90;;;;;;4956573;29;20082;-68
2023/07/23 10:33:59;;;;;;;7.40;4.20;;;20.20;99.90;;;;;;4956529;28;20392;-67
2023/07/23 10:36:25;;;;;;;9.52;3.80;;;20.30;99.90;;;;;;4956101;28;20035;-68
2023/07/23 10:39:25;;;;;;;6.32;3.97;;;20.50;99.90;;;;;;4956183;29;20462;-68
2023/07/23 10:41:53;;;;;;;10.68;5.82;;;20.80;99.90;;;;;;4955673;29;20035;-68
2023/07/23 10:44:20;;;;;;;8.35;5.00;;;20.90;99.90;;;;;;4956344;28;20074;-67
2023/07/23 10:46:46;;;;;;;12.20;5.35;;;20.90;99.90;;;;;;4956330;28;20027;-68
2023/07/23 10:49:19;;;;;;;5.35;3.50;;;20.90;99.90;;;;;;4956016;29;20031;-68
2023/07/23 10:51:45;;;;;;;7.10;4.03;;;21.00;99.90;;;;;;4956301;28;20086;-68
2023/07/23 10:54:12;;;;;;;13.68;7.07;;;20.90;99.90;;;;;;4955061;29;20373;-67
2023/07/23 10:56:41;;;;;;;8.30;4.20;;;20.60;99.90;;;;;;4956167;28;20027;-68
2023/07/23 10:59:14;;;;;;;12.07;6.15;;;20.40;99.90;;;;;;4955839;28;20062;-68
2023/07/23 11:01:41;;;;;;;8.98;5.32;;;20.00;99.90;;;;;;4946250;28;20036;-67
2023/07/23 11:04:15;;;;;;;14.35;6.68;;;19.70;99.90;;;;;;4936539;29;20039;-67
2023/07/23 11:07:01;;;;;;;16.52;10.15;;;19.60;99.90;;;;;;4936586;29;20063;-67
2023/07/23 11:09:30;;;;;;;17.65;9.50;;;19.60;99.90;;;;;;4936716;29;20058;-68
2023/07/23 11:11:56;;;;;;;11.13;5.82;;;19.70;99.90;;;;;;4936268;29;20042;-68
2023/07/23 11:14:23;;;;;;;10.95;5.68;;;19.80;99.90;;;;;;4936412;29;20490;-68
2023/07/23 11:16:51;;;;;;;17.88;8.13;;;20.00;99.90;;;;;;4932217;29;20031;-68
2023/07/23 11:19:19;;;;;;;17.48;9.85;;;20.10;99.90;;;;;;4935953;29;20031;-67
2023/07/23 11:21:56;;;;;;;12.85;6.63;;;20.40;99.90;;;;;;4934213;29;20123;-68
2023/07/23 11:24:23;;;;;;;19.52;8.57;;;20.50;99.90;;;;;;4936399;29;20031;-67
2023/07/23 11:26:50;;;;;;;13.48;6.57;;;20.60;99.90;;;;;;4926734;29;20066;-67
2023/07/23 11:29:16;;;;;;;18.52;7.63;;;20.70;99.90;;;;;;4917060;29;20075;-67
2023/07/23 11:31:42;;;;;;;16.33;6.55;;;20.70;99.90;;;;;;4916816;29;20032;-68
2023/07/23 11:34:08;;;;;;;17.38;6.88;;;20.80;99.90;;;;;;4923219;29;20032;-66
2023/07/23 11:36:35;;;;;;;18.92;6.03;;;20.80;99.90;;;;;;4921810;29;20032;-67
2023/07/23 11:39:01;;;;;;;19.02;5.95;;;20.90;99.90;;;;;;4926727;29;20020;-67
2023/07/23 11:41:34;;;;;;;16.55;5.65;;;21.20;99.90;;;;;;4926251;29;20033;-67
2023/07/23 11:44:03;;;;;;;16.35;5.15;;;21.40;99.90;;;;;;4924389;29;20136;-67
2023/07/23 11:46:37;;;;;;;27.27;7.07;;;21.60;99.90;;;;;;4924243;29;20376;-68
2023/07/23 11:49:06;;;;;;;18.33;6.68;;;21.90;99.90;;;;;;4926058;29;20536;-67
2023/07/23 11:51:32;;;;;;;14.60;4.40;;;22.30;99.90;;;;;;4926982;29;20028;-66
2023/07/23 11:54:07;;;;;;;20.10;5.72;;;22.50;99.90;;;;;;4919076;29;20024;-67
2023/07/23 11:56:35;;;;;;;14.68;4.50;;;22.70;99.90;;;;;;4935859;29;20054;-67
2023/07/23 11:59:03;;;;;;;15.23;4.47;;;22.80;99.90;;;;;;4938456;28;20070;-67
2023/07/23 12:01:28;;;;;;;12.40;3.92;;;23.10;99.90;;;;;;4935329;29;20111;-67
2023/07/23 12:03:54;;;;;;;14.70;4.00;;;23.20;99.90;;;;;;4935439;29;20510;-67
2023/07/23 12:06:19;;;;;;;15.30;4.50;;;23.30;99.90;;;;;;4935604;29;20023;-67
2023/07/23 12:08:46;;;;;;;12.32;3.42;;;23.70;99.90;;;;;;4935391;29;20055;-67
2023/07/23 12:11:14;;;;;;;14.32;4.22;;;24.10;99.90;;;;;;4935116;29;20059;-67
2023/07/23 12:13:43;;;;;;;10.57;2.90;;;24.50;99.90;;;;;;4935444;29;20051;-68
2023/07/23 12:16:31;;;;;;;16.88;3.67;;;24.70;99.90;;;;;;4928946;29;20460;-67
2023/07/23 12:19:02;;;;;;;10.80;3.08;;;24.80;99.90;;;;;;4935344;29;20510;-67
2023/07/23 12:21:27;;;;;;;12.95;3.42;;;24.80;99.90;;;;;;4916072;29;20024;-68
2023/07/23 12:23:53;;;;;;;14.35;3.40;;;25.10;99.90;;;;;;4916289;29;20397;-69
2023/07/23 12:26:19;;;;;;;14.02;3.10;;;25.40;99.90;;;;;;4952086;29;20074;-68
2023/07/23 12:28:44;;;;;;;8.90;2.42;;;25.80;99.90;;;;;;4954299;29;20540;-68
2023/07/23 12:31:10;;;;;;;18.92;2.88;;;26.00;99.90;;;;;;4953520;29;20031;-69